Time;durP1;ratioP1;P1;durP2;ratioP2;P2;SDS_P1;SDS_P2;PMS_P1;PMS_P2;Temp;Humidity;BMP_temperature;BMP_pressure;BME280_temperature;BME280_humidity;BME280_pressure;Samples;Min_cycle;Max_cycle;Signal;HPM_P1;HPM_P2
2021/09/23 00:00:13;;;;;;;6.07;5.47;;;14.00;79.90;;;;;;5056146;28;20209;-89
2021/09/23 00:05:19;;;;;;;5.20;4.80;;;14.20;79.20;;;;;;5043696;28;20208;-90
2021/09/23 00:07:47;;;;;;;5.70;5.20;;;14.20;78.80;;;;;;5036284;28;20210;-90
2021/09/23 00:10:17;;;;;;;5.90;5.40;;;14.30;77.80;;;;;;5052654;28;20256;-89
2021/09/23 00:12:43;;;;;;;6.13;5.53;;;14.20;77.50;;;;;;5046183;28;20201;-90
2021/09/23 00:15:11;;;;;;;5.90;5.33;;;14.30;77.60;;;;;;5049637;28;20272;-89
2021/09/23 00:17:37;;;;;;;7.40;5.90;;;14.20;77.30;;;;;;5037720;28;20247;-88
2021/09/23 00:20:04;;;;;;;5.90;5.23;;;14.20;76.50;;;;;;5050007;28;20243;-89
2021/09/23 00:22:30;;;;;;;5.57;5.07;;;14.20;77.50;;;;;;5047103;28;20318;-90
2021/09/23 00:24:56;;;;;;;5.77;5.27;;;14.40;77.30;;;;;;5054907;28;20216;-90
2021/09/23 00:27:21;;;;;;;5.10;4.70;;;14.50;76.10;;;;;;5041024;28;20211;-93
2021/09/23 00:29:47;;;;;;;6.10;5.30;;;14.60;75.70;;;;;;5029784;28;20303;-89
2021/09/23 00:32:12;;;;;;;6.53;5.10;;;14.70;75.80;;;;;;5043090;28;20219;-89
2021/09/23 00:34:38;;;;;;;5.33;4.73;;;14.60;75.50;;;;;;5031211;28;20208;-89
2021/09/23 00:37:04;;;;;;;6.03;5.50;;;14.60;75.00;;;;;;5051985;28;20203;-90
2021/09/23 00:39:29;;;;;;;5.53;5.03;;;14.60;74.40;;;;;;5018334;28;20259;-90
2021/09/23 00:41:56;;;;;;;6.17;5.33;;;14.50;75.70;;;;;;5034669;28;20281;-90
2021/09/23 00:44:23;;;;;;;6.40;5.80;;;14.50;76.50;;;;;;5051635;28;20194;-90
2021/09/23 00:46:50;;;;;;;5.33;4.93;;;14.60;75.90;;;;;;5052798;28;20260;-89
2021/09/23 00:49:17;;;;;;;5.47;5.07;;;14.60;75.20;;;;;;5052714;28;20286;-89
2021/09/23 00:51:44;;;;;;;5.60;5.10;;;14.60;74.90;;;;;;5042179;28;20737;-89
2021/09/23 00:54:10;;;;;;;6.53;5.43;;;14.60;74.00;;;;;;5042439;28;20192;-89
2021/09/23 00:56:36;;;;;;;5.77;5.20;;;14.60;74.20;;;;;;5038534;28;20189;-89
2021/09/23 00:59:02;;;;;;;6.03;5.37;;;14.50;75.40;;;;;;5033356;28;20693;-89
2021/09/23 01:01:28;;;;;;;6.13;5.63;;;14.50;75.60;;;;;;5053792;28;20724;-89
2021/09/23 01:03:54;;;;;;;6.40;5.20;;;14.50;76.30;;;;;;5055397;28;20199;-89
2021/09/23 01:06:20;;;;;;;6.17;5.67;;;14.30;76.70;;;;;;5035643;28;20211;-89
2021/09/23 01:08:57;;;;;;;5.70;5.23;;;14.20;77.30;;;;;;5052529;28;20227;-88
2021/09/23 01:11:25;;;;;;;6.80;6.10;;;14.20;77.20;;;;;;5019278;28;20227;-92
2021/09/23 01:13:51;;;;;;;5.83;5.33;;;14.30;77.60;;;;;;5019926;28;20185;-89
2021/09/23 01:16:17;;;;;;;5.93;5.43;;;14.30;77.30;;;;;;5052717;28;20282;-88
2021/09/23 01:18:43;;;;;;;6.03;5.57;;;14.30;78.00;;;;;;5018293;28;20303;-90
2021/09/23 01:21:09;;;;;;;5.93;5.43;;;14.30;77.20;;;;;;5038513;28;20231;-91
2021/09/23 01:23:39;;;;;;;5.47;5.07;;;14.30;77.30;;;;;;5045846;28;20205;-91
2021/09/23 01:26:10;;;;;;;6.20;5.37;;;14.10;76.20;;;;;;5036948;28;20551;-89
2021/09/23 01:28:39;;;;;;;5.87;5.37;;;14.20;76.90;;;;;;5040617;28;20220;-88
2021/09/23 01:31:05;;;;;;;5.83;5.33;;;14.20;75.40;;;;;;5059000;28;20635;-89
2021/09/23 01:33:32;;;;;;;6.00;5.50;;;13.90;76.80;;;;;;5048509;28;20210;-89
2021/09/23 01:35:59;;;;;;;5.50;4.97;;;13.80;77.90;;;;;;5030092;28;20207;-89
2021/09/23 01:38:26;;;;;;;6.87;5.80;;;13.90;78.00;;;;;;5016420;28;20219;-89
2021/09/23 01:40:51;;;;;;;6.63;5.60;;;14.00;77.50;;;;;;5015211;28;20217;-89
2021/09/23 01:43:17;;;;;;;5.57;4.83;;;14.00;76.80;;;;;;5031635;28;20675;-89
2021/09/23 01:45:44;;;;;;;6.27;5.53;;;14.00;76.40;;;;;;5052232;28;20205;-89
2021/09/23 01:48:10;;;;;;;6.47;4.77;;;14.00;76.20;;;;;;5050830;28;20200;-89
2021/09/23 01:50:36;;;;;;;5.77;5.27;;;13.80;76.80;;;;;;5037982;28;20219;-89
2021/09/23 01:53:01;;;;;;;5.43;4.90;;;13.90;76.50;;;;;;5056921;28;20234;-88
2021/09/23 01:55:27;;;;;;;5.23;4.73;;;14.00;76.00;;;;;;5060225;28;20184;-89
2021/09/23 01:57:53;;;;;;;5.00;4.60;;;14.00;75.80;;;;;;5059499;28;20811;-90
2021/09/23 02:00:19;;;;;;;5.20;4.70;;;14.10;75.70;;;;;;5031741;28;20582;-89
2021/09/23 02:02:45;;;;;;;5.60;5.13;;;14.10;75.30;;;;;;5035945;28;20650;-90
2021/09/23 02:05:10;;;;;;;5.27;4.73;;;14.10;74.60;;;;;;5041717;28;20199;-89
2021/09/23 02:07:36;;;;;;;5.90;5.03;;;14.10;74.60;;;;;;5041529;28;20192;-88
2021/09/23 02:10:04;;;;;;;5.17;4.67;;;14.10;74.40;;;;;;5053424;28;20302;-89
2021/09/23 02:12:29;;;;;;;5.80;5.30;;;14.10;74.90;;;;;;5053501;28;20724;-88
2021/09/23 02:14:55;;;;;;;7.03;5.13;;;14.10;74.60;;;;;;5037594;28;20193;-89
2021/09/23 02:17:21;;;;;;;6.13;5.53;;;14.00;75.30;;;;;;5055599;28;20266;-89
2021/09/23 02:19:47;;;;;;;5.53;5.00;;;14.00;75.50;;;;;;5039417;28;20304;-89
2021/09/23 02:22:13;;;;;;;6.63;5.67;;;14.00;75.50;;;;;;5055662;28;20195;-89
2021/09/23 02:24:38;;;;;;;5.87;5.30;;;14.00;75.70;;;;;;5059098;28;20196;-89
2021/09/23 02:27:05;;;;;;;5.83;5.30;;;13.90;75.90;;;;;;5059901;28;20212;-88
2021/09/23 02:29:31;;;;;;;5.40;4.90;;;13.90;75.60;;;;;;5037761;28;20230;-90
2021/09/23 02:31:57;;;;;;;5.63;5.13;;;13.90;74.80;;;;;;5056291;28;20247;-89
2021/09/23 02:34:23;;;;;;;5.93;5.43;;;13.70;75.30;;;;;;5058444;28;20190;-88
2021/09/23 02:36:48;;;;;;;5.27;4.77;;;13.80;75.50;;;;;;5036754;28;20191;-89
2021/09/23 02:39:14;;;;;;;5.80;5.30;;;13.80;74.80;;;;;;5060631;28;20214;-91
2021/09/23 02:41:40;;;;;;;5.97;5.40;;;13.60;75.20;;;;;;5025446;28;20228;-89
2021/09/23 02:44:05;;;;;;;5.47;5.07;;;13.60;75.20;;;;;;5046028;28;20253;-90
2021/09/23 02:46:34;;;;;;;5.30;4.80;;;13.50;75.90;;;;;;5061205;28;20180;-91
2021/09/23 02:49:00;;;;;;;5.57;5.17;;;13.50;76.10;;;;;;5063658;28;20271;-90
2021/09/23 02:51:25;;;;;;;6.17;5.50;;;13.60;76.30;;;;;;5054104;28;20225;-89
2021/09/23 02:53:51;;;;;;;8.47;5.77;;;13.40;76.20;;;;;;5056500;28;20202;-89
2021/09/23 02:56:17;;;;;;;5.40;4.90;;;13.40;77.70;;;;;;5036595;28;20277;-88
2021/09/23 02:58:44;;;;;;;5.73;5.17;;;13.40;76.50;;;;;;5011354;28;20220;-89
2021/09/23 03:01:10;;;;;;;5.07;4.67;;;13.50;76.10;;;;;;5056685;28;20659;-88
2021/09/23 03:03:36;;;;;;;5.37;4.97;;;13.40;75.90;;;;;;5037989;28;20196;-89
2021/09/23 03:06:01;;;;;;;5.37;4.73;;;13.50;75.50;;;;;;5037579;28;20200;-89
2021/09/23 03:08:27;;;;;;;5.03;4.63;;;13.50;75.20;;;;;;5025489;28;20222;-89
2021/09/23 03:10:53;;;;;;;6.27;4.97;;;13.50;75.10;;;;;;5044339;28;20231;-91
2021/09/23 03:13:18;;;;;;;5.43;5.03;;;13.50;75.20;;;;;;5029893;28;20258;-89
2021/09/23 03:15:44;;;;;;;5.63;5.13;;;13.60;75.40;;;;;;5024085;28;20200;-89
2021/09/23 03:18:10;;;;;;;5.50;5.07;;;13.60;75.20;;;;;;5031394;28;20202;-90
2021/09/23 03:20:35;;;;;;;5.07;4.67;;;13.60;74.80;;;;;;5033424;28;20231;-89
2021/09/23 03:23:01;;;;;;;5.07;4.67;;;13.60;74.30;;;;;;5021955;28;20596;-89
2021/09/23 03:25:29;;;;;;;5.43;4.93;;;13.50;74.20;;;;;;5041572;28;20211;-90
2021/09/23 03:27:55;;;;;;;4.97;4.40;;;13.40;74.70;;;;;;5033384;28;20192;-90
2021/09/23 03:30:21;;;;;;;5.07;4.67;;;13.50;74.50;;;;;;5041270;28;20553;-89
2021/09/23 03:32:47;;;;;;;8.43;5.40;;;13.50;74.20;;;;;;5038961;28;20188;-89
2021/09/23 03:35:13;;;;;;;5.10;4.60;;;13.40;73.80;;;;;;5037201;28;20201;-90
2021/09/23 03:37:39;;;;;;;8.30;5.10;;;13.40;73.90;;;;;;5056693;28;20294;-89
2021/09/23 03:40:06;;;;;;;5.87;4.87;;;13.20;73.80;;;;;;5032933;28;20250;-90
2021/09/23 03:42:32;;;;;;;5.23;4.70;;;13.20;74.80;;;;;;5055436;28;20541;-89
2021/09/23 03:44:57;;;;;;;6.07;5.00;;;13.10;75.40;;;;;;5038728;28;20223;-89
2021/09/23 03:47:23;;;;;;;6.83;5.53;;;13.20;74.70;;;;;;5057405;28;20194;-89
2021/09/23 03:49:49;;;;;;;5.77;5.20;;;13.10;75.30;;;;;;5056206;28;20595;-88
2021/09/23 03:52:14;;;;;;;5.63;5.13;;;13.20;75.00;;;;;;5039578;28;20208;-89
2021/09/23 03:54:40;;;;;;;5.27;4.77;;;13.10;75.30;;;;;;5023817;28;20679;-90
2021/09/23 03:57:06;;;;;;;5.33;4.83;;;13.20;74.90;;;;;;5009578;28;20623;-90
2021/09/23 03:59:31;;;;;;;4.87;4.47;;;13.10;74.90;;;;;;5031059;28;20708;-90
2021/09/23 04:01:57;;;;;;;5.47;4.90;;;13.10;74.80;;;;;;5057288;28;20203;-90
2021/09/23 04:04:23;;;;;;;4.67;4.27;;;13.10;73.10;;;;;;5044326;28;20196;-90
2021/09/23 04:06:48;;;;;;;5.30;4.80;;;12.90;75.10;;;;;;5042229;28;20212;-88
2021/09/23 04:09:14;;;;;;;4.90;4.33;;;13.00;74.60;;;;;;5063300;28;20223;-89
2021/09/23 04:11:40;;;;;;;6.47;4.80;;;12.90;75.20;;;;;;5049954;28;20286;-91
2021/09/23 04:14:07;;;;;;;6.50;4.67;;;12.90;74.50;;;;;;5040844;28;20689;-89
2021/09/23 04:16:33;;;;;;;5.30;4.80;;;12.90;75.00;;;;;;5055861;28;20191;-90
2021/09/23 04:19:00;;;;;;;5.20;4.80;;;12.90;75.00;;;;;;5042359;28;20752;-90
2021/09/23 04:21:26;;;;;;;4.73;4.37;;;13.00;74.70;;;;;;5056046;28;20247;-90
2021/09/23 04:23:52;;;;;;;5.73;4.73;;;12.90;74.40;;;;;;5032117;28;20648;-90
2021/09/23 04:26:18;;;;;;;4.93;4.53;;;12.90;74.20;;;;;;5055748;28;20279;-90
2021/09/23 04:28:44;;;;;;;5.13;4.67;;;12.90;74.50;;;;;;5054744;28;20610;-90
2021/09/23 04:31:10;;;;;;;8.30;5.33;;;12.80;73.80;;;;;;5037738;28;20230;-89
2021/09/23 04:33:35;;;;;;;5.43;4.67;;;12.80;74.60;;;;;;5057081;28;20290;-90
2021/09/23 04:36:01;;;;;;;5.53;5.03;;;12.70;74.40;;;;;;5021642;28;20193;-90
2021/09/23 04:38:27;;;;;;;4.57;4.17;;;12.70;74.60;;;;;;5056748;28;20691;-90
2021/09/23 04:40:53;;;;;;;5.63;5.07;;;12.70;74.40;;;;;;5054520;28;20212;-90
2021/09/23 04:43:19;;;;;;;4.83;4.40;;;12.80;74.20;;;;;;5055499;28;20196;-90
2021/09/23 04:45:46;;;;;;;8.27;4.93;;;12.60;73.80;;;;;;5034162;28;20201;-90
2021/09/23 04:48:12;;;;;;;5.43;4.93;;;12.40;74.30;;;;;;5030601;28;20203;-90
2021/09/23 04:50:37;;;;;;;5.77;5.00;;;12.40;75.80;;;;;;5050106;28;20216;-90
2021/09/23 04:53:03;;;;;;;6.00;5.10;;;12.40;76.80;;;;;;5054624;28;20563;-90
2021/09/23 04:55:29;;;;;;;7.13;4.87;;;12.40;75.20;;;;;;5049037;28;20273;-90
2021/09/23 04:57:54;;;;;;;6.20;5.60;;;12.40;75.40;;;;;;5043469;28;20185;-91
2021/09/23 05:00:20;;;;;;;7.57;5.40;;;12.30;73.50;;;;;;5023294;28;20276;-91
2021/09/23 05:02:48;;;;;;;5.03;4.50;;;11.90;75.70;;;;;;5019862;28;20199;-91
2021/09/23 05:05:13;;;;;;;5.30;4.57;;;11.80;77.40;;;;;;5054404;28;20220;-91
2021/09/23 05:07:39;;;;;;;5.90;4.83;;;12.00;77.30;;;;;;5056370;28;20378;-91
2021/09/23 05:10:06;;;;;;;5.47;4.97;;;12.10;77.20;;;;;;5014111;28;20224;-91
2021/09/23 05:12:31;;;;;;;5.50;4.97;;;12.20;76.00;;;;;;5044722;28;20220;-90
2021/09/23 05:14:57;;;;;;;10.43;5.50;;;12.20;75.40;;;;;;5054091;28;20187;-91
2021/09/23 05:17:23;;;;;;;7.07;5.60;;;12.10;73.10;;;;;;5037962;28;20199;-90
2021/09/23 05:19:50;;;;;;;7.10;5.83;;;11.80;75.60;;;;;;5035638;28;20610;-91
2021/09/23 05:22:15;;;;;;;5.70;5.10;;;11.80;77.50;;;;;;5037998;28;20333;-90
2021/09/23 05:24:43;;;;;;;5.37;4.80;;;12.00;76.90;;;;;;5040564;28;20201;-91
2021/09/23 05:27:09;;;;;;;5.60;5.10;;;12.00;76.50;;;;;;5052099;28;20195;-90
2021/09/23 05:29:34;;;;;;;5.53;4.97;;;12.00;76.10;;;;;;5057298;28;20223;-92
2021/09/23 05:32:00;;;;;;;6.20;5.03;;;12.20;76.20;;;;;;5060120;28;20220;-91
2021/09/23 05:34:26;;;;;;;7.80;6.33;;;12.20;75.70;;;;;;5067458;28;20235;-91
2021/09/23 05:36:52;;;;;;;8.90;6.87;;;12.30;76.30;;;;;;5054506;28;20212;-91
2021/09/23 05:39:17;;;;;;;7.07;5.63;;;12.10;76.80;;;;;;5042374;28;20255;-91
2021/09/23 05:41:43;;;;;;;6.80;6.10;;;12.10;78.50;;;;;;5030765;28;20272;-93
2021/09/23 05:44:10;;;;;;;6.93;6.07;;;12.00;77.50;;;;;;5042095;28;20703;-92
2021/09/23 05:46:36;;;;;;;12.23;7.73;;;11.80;78.20;;;;;;5055084;28;20285;-89
2021/09/23 05:49:02;;;;;;;14.53;8.10;;;11.50;81.10;;;;;;5052775;28;20234;-88
2021/09/23 05:51:28;;;;;;;19.60;8.40;;;11.00;83.80;;;;;;5050336;28;20225;-92
2021/09/23 05:53:54;;;;;;;18.00;8.43;;;10.70;86.50;;;;;;5037757;28;20182;-92
2021/09/23 05:56:20;;;;;;;8.23;7.50;;;10.40;87.90;;;;;;5038119;28;20194;-92
2021/09/23 06:01:14;;;;;;;9.30;6.87;;;10.90;87.60;;;;;;5006573;28;20220;-87
2021/09/23 06:03:40;;;;;;;8.10;7.40;;;11.20;86.90;;;;;;5013359;28;20279;-87
2021/09/23 06:06:06;;;;;;;8.83;6.83;;;11.30;85.90;;;;;;5010799;28;20295;-89
2021/09/23 06:08:32;;;;;;;9.33;7.07;;;11.40;86.30;;;;;;5008693;28;20707;-88
2021/09/23 06:10:57;;;;;;;11.17;7.33;;;11.40;87.10;;;;;;5001131;28;20224;-88
2021/09/23 06:13:23;;;;;;;9.33;7.80;;;11.30;87.00;;;;;;5030261;28;20199;-89
2021/09/23 06:15:50;;;;;;;10.27;7.30;;;11.00;88.70;;;;;;5028153;28;20186;-89
2021/09/23 06:18:16;;;;;;;7.83;7.03;;;11.00;89.00;;;;;;5025212;28;20193;-89
2021/09/23 06:20:44;;;;;;;7.80;7.00;;;10.90;89.80;;;;;;5013727;28;20193;-89
2021/09/23 06:23:10;;;;;;;12.30;7.93;;;10.70;90.80;;;;;;5011632;28;20571;-89
2021/09/23 06:25:37;;;;;;;9.30;7.27;;;10.60;92.40;;;;;;5012072;28;20251;-89
2021/09/23 06:28:03;;;;;;;8.13;7.33;;;10.70;92.30;;;;;;4994855;28;20182;-89
2021/09/23 06:30:29;;;;;;;7.83;7.13;;;11.00;92.00;;;;;;4995937;28;20223;-90
2021/09/23 06:32:55;;;;;;;16.97;7.33;;;11.30;90.90;;;;;;4992944;28;20219;-89
2021/09/23 06:35:21;;;;;;;24.20;7.60;;;11.40;90.20;;;;;;5011655;28;20182;-88
2021/09/23 06:37:48;;;;;;;7.70;6.90;;;11.30;89.80;;;;;;4979807;28;20197;-88
2021/09/23 06:40:15;;;;;;;15.47;8.13;;;11.30;90.20;;;;;;4994417;28;20298;-89
2021/09/23 06:42:41;;;;;;;9.23;7.77;;;11.40;89.50;;;;;;5011545;28;20303;-89
2021/09/23 06:45:08;;;;;;;8.70;7.47;;;11.40;90.20;;;;;;4994258;28;20738;-88
2021/09/23 06:47:34;;;;;;;16.03;8.53;;;11.50;89.90;;;;;;5010679;28;20199;-88
2021/09/23 06:50:00;;;;;;;14.13;9.10;;;11.60;90.70;;;;;;5011548;28;20220;-88
2021/09/23 06:52:26;;;;;;;8.93;8.10;;;11.50;90.50;;;;;;5014268;28;20210;-88
2021/09/23 06:54:52;;;;;;;10.63;9.57;;;11.30;92.30;;;;;;4990842;28;20203;-87
2021/09/23 06:57:18;;;;;;;11.50;10.40;;;11.50;91.10;;;;;;5008939;28;20206;-88
2021/09/23 06:59:44;;;;;;;10.67;9.63;;;11.40;91.50;;;;;;5012008;28;20214;-87
2021/09/23 07:02:09;;;;;;;20.97;11.10;;;11.40;91.90;;;;;;5013124;28;20203;-88
2021/09/23 07:04:35;;;;;;;14.97;11.97;;;11.50;91.70;;;;;;5009404;28;20333;-89
2021/09/23 07:07:01;;;;;;;14.37;12.27;;;11.50;92.50;;;;;;5010667;28;20195;-89
2021/09/23 07:09:27;;;;;;;12.73;11.43;;;11.60;92.30;;;;;;5020611;28;20217;-89
2021/09/23 07:11:53;;;;;;;12.33;11.07;;;11.60;92.20;;;;;;5011939;28;20210;-88
2021/09/23 07:14:19;;;;;;;19.57;12.47;;;11.70;92.40;;;;;;5013071;28;20290;-88
2021/09/23 07:16:45;;;;;;;22.40;13.87;;;11.80;91.80;;;;;;5012109;28;20211;-90
2021/09/23 07:19:10;;;;;;;16.33;13.07;;;11.70;92.90;;;;;;4996508;28;20703;-88
2021/09/23 07:21:36;;;;;;;16.17;13.97;;;11.70;92.80;;;;;;5010927;28;20282;-89
2021/09/23 07:24:02;;;;;;;13.13;11.83;;;11.80;92.90;;;;;;5012070;28;20211;-90
2021/09/23 07:26:28;;;;;;;17.90;13.07;;;11.70;93.90;;;;;;5015057;28;20226;-88
2021/09/23 07:28:54;;;;;;;20.43;13.40;;;11.80;93.80;;;;;;5014167;28;20315;-89
2021/09/23 07:31:19;;;;;;;14.43;13.13;;;11.90;92.40;;;;;;5018909;28;20256;-90
2021/09/23 07:33:45;;;;;;;16.97;13.93;;;12.10;93.90;;;;;;5025385;28;20195;-88
2021/09/23 07:36:12;;;;;;;14.80;13.30;;;12.10;94.20;;;;;;5029693;28;20226;-89
2021/09/23 07:38:39;;;;;;;15.23;13.63;;;12.20;92.80;;;;;;5030658;28;20208;-89
2021/09/23 07:41:05;;;;;;;13.33;12.00;;;12.30;92.70;;;;;;5024663;28;20192;-89
2021/09/23 07:43:30;;;;;;;15.30;13.67;;;12.30;92.70;;;;;;5013112;28;20211;-89
2021/09/23 07:45:56;;;;;;;14.43;13.13;;;12.50;92.60;;;;;;5011862;28;20197;-88
2021/09/23 07:48:22;;;;;;;16.37;14.77;;;12.40;92.90;;;;;;5012670;28;20198;-87
2021/09/23 07:50:49;;;;;;;14.30;12.90;;;12.20;94.40;;;;;;5013383;28;20225;-88
2021/09/23 07:53:15;;;;;;;13.37;12.17;;;12.40;93.50;;;;;;5012304;28;20193;-88
2021/09/23 07:55:40;;;;;;;13.17;11.87;;;12.20;94.30;;;;;;5012343;28;20594;-88
2021/09/23 07:58:06;;;;;;;14.17;11.60;;;12.30;93.40;;;;;;5013325;28;20197;-87
2021/09/23 08:00:32;;;;;;;13.73;12.33;;;12.40;91.90;;;;;;5012960;28;20220;-87
2021/09/23 08:02:58;;;;;;;13.20;11.70;;;12.60;92.00;;;;;;5008136;28;20267;-87
2021/09/23 08:05:28;;;;;;;15.10;12.53;;;12.60;91.30;;;;;;4995678;28;20684;-87
2021/09/23 08:07:54;;;;;;;13.20;11.80;;;12.60;92.70;;;;;;4987143;28;20204;-85
2021/09/23 08:10:20;;;;;;;14.83;12.13;;;12.50;93.80;;;;;;5002513;28;20695;-85
2021/09/23 08:12:46;;;;;;;13.17;11.80;;;12.50;93.60;;;;;;5011352;28;20240;-87
2021/09/23 08:15:12;;;;;;;13.33;12.03;;;12.80;92.70;;;;;;5014215;28;20661;-88
2021/09/23 08:17:38;;;;;;;12.73;11.50;;;13.00;91.50;;;;;;4993836;28;20196;-88
2021/09/23 08:20:04;;;;;;;14.67;13.23;;;13.10;90.30;;;;;;5006468;28;20228;-87
2021/09/23 08:22:30;;;;;;;14.63;12.80;;;13.00;91.10;;;;;;5010294;28;20685;-86
2021/09/23 08:24:56;;;;;;;13.17;11.97;;;13.00;91.50;;;;;;5008550;28;20249;-86
2021/09/23 08:27:22;;;;;;;13.60;12.30;;;13.10;91.40;;;;;;5010079;28;20278;-86
2021/09/23 08:29:48;;;;;;;13.57;12.23;;;13.30;89.80;;;;;;4995804;28;20205;-85
2021/09/23 08:32:19;;;;;;;12.77;11.47;;;13.60;89.50;;;;;;5009325;28;20629;-86
2021/09/23 08:34:48;;;;;;;12.90;11.53;;;13.70;87.90;;;;;;5005269;28;20613;-86
2021/09/23 08:37:15;;;;;;;13.80;12.50;;;13.90;87.20;;;;;;4992008;28;20193;-86
2021/09/23 08:39:40;;;;;;;13.30;12.00;;;13.80;89.10;;;;;;5012448;28;20636;-86
2021/09/23 08:42:06;;;;;;;19.43;17.47;;;13.80;89.60;;;;;;5008933;28;20206;-86
2021/09/23 08:44:32;;;;;;;17.80;16.00;;;14.00;90.60;;;;;;5010725;28;20265;-86
2021/09/23 08:46:58;;;;;;;12.73;11.63;;;14.40;85.60;;;;;;4994904;28;20849;-85
2021/09/23 08:49:23;;;;;;;14.03;12.63;;;14.50;85.50;;;;;;5010197;28;20221;-88
2021/09/23 08:51:49;;;;;;;16.40;11.80;;;14.50;87.10;;;;;;5009441;28;20274;-86
2021/09/23 08:54:17;;;;;;;11.97;10.87;;;14.60;84.70;;;;;;5008835;28;20202;-86
2021/09/23 08:56:44;;;;;;;12.10;10.97;;;14.80;83.90;;;;;;5011502;28;20286;-86
2021/09/23 08:59:10;;;;;;;10.33;9.43;;;14.90;82.30;;;;;;5009560;28;20826;-86
2021/09/23 09:01:46;;;;;;;11.67;10.47;;;14.90;82.00;;;;;;5011379;28;20199;-85
2021/09/23 09:04:12;;;;;;;10.70;9.57;;;14.80;82.10;;;;;;5011043;28;20233;-85
2021/09/23 09:07:01;;;;;;;9.77;8.77;;;15.10;80.60;;;;;;5010090;28;20209;-85
2021/09/23 09:09:28;;;;;;;10.37;9.20;;;15.20;78.40;;;;;;5010725;28;20237;-85
2021/09/23 09:11:55;;;;;;;10.10;9.10;;;15.40;78.30;;;;;;5011533;28;20264;-85
2021/09/23 09:14:29;;;;;;;10.50;9.60;;;15.30;80.40;;;;;;5010253;28;20671;-86
2021/09/23 09:17:06;;;;;;;11.60;9.13;;;15.50;79.30;;;;;;5008667;28;20188;-86
2021/09/23 09:20:02;;;;;;;11.57;10.40;;;15.70;78.80;;;;;;5008593;28;20250;-86
2021/09/23 09:22:31;;;;;;;10.63;9.63;;;15.90;78.60;;;;;;5013736;28;20737;-86
2021/09/23 09:24:56;;;;;;;10.40;9.50;;;16.10;76.20;;;;;;5018841;28;20264;-86
2021/09/23 09:27:32;;;;;;;11.67;10.40;;;16.30;76.90;;;;;;5017820;28;20689;-85
2021/09/23 09:30:11;;;;;;;13.03;10.00;;;16.10;77.50;;;;;;5015047;28;20274;-86
2021/09/23 09:32:45;;;;;;;10.20;9.30;;;16.40;77.20;;;;;;5010494;28;20213;-86
2021/09/23 09:35:16;;;;;;;11.60;9.80;;;16.60;77.20;;;;;;4993986;28;20193;-86
2021/09/23 09:37:48;;;;;;;10.23;8.80;;;16.50;75.50;;;;;;5008121;28;20221;-86
2021/09/23 09:40:18;;;;;;;10.37;9.27;;;16.80;74.40;;;;;;5009947;28;20218;-86
2021/09/23 09:42:45;;;;;;;9.77;8.80;;;17.20;74.00;;;;;;5009309;28;20263;-86
2021/09/23 09:45:24;;;;;;;9.47;8.57;;;17.50;73.10;;;;;;5006390;28;20208;-86
2021/09/23 09:47:53;;;;;;;8.80;7.90;;;17.50;70.70;;;;;;5005826;28;20457;-85
2021/09/23 09:50:34;;;;;;;8.83;7.80;;;17.30;70.70;;;;;;5009430;28;20227;-86
2021/09/23 09:53:03;;;;;;;7.37;6.77;;;17.20;71.70;;;;;;5007879;28;20825;-86
2021/09/23 09:55:32;;;;;;;8.07;6.60;;;17.50;71.20;;;;;;5008156;28;20280;-86
2021/09/23 09:57:58;;;;;;;7.20;6.20;;;17.80;71.10;;;;;;5008751;28;20221;-86
2021/09/23 10:00:26;;;;;;;6.73;5.80;;;18.10;69.40;;;;;;5010656;28;20237;-86
2021/09/23 10:02:51;;;;;;;6.67;5.90;;;18.30;66.90;;;;;;5010515;28;20226;-86
2021/09/23 10:05:19;;;;;;;5.73;5.23;;;18.40;65.80;;;;;;5009420;28;20205;-86
2021/09/23 10:07:51;;;;;;;5.77;5.17;;;18.70;64.00;;;;;;5010552;28;20205;-85
2021/09/23 10:10:19;;;;;;;5.47;4.97;;;18.60;62.60;;;;;;5009158;28;20279;-86
2021/09/23 10:12:47;;;;;;;6.33;5.67;;;18.50;65.00;;;;;;5009910;28;20218;-86
2021/09/23 10:15:16;;;;;;;6.60;6.07;;;18.30;65.40;;;;;;4997110;28;20204;-86
2021/09/23 10:17:48;;;;;;;7.47;5.93;;;18.40;65.10;;;;;;5012530;28;20191;-86
2021/09/23 10:20:17;;;;;;;6.47;5.83;;;18.60;64.70;;;;;;4991902;28;20217;-86
2021/09/23 10:22:43;;;;;;;7.30;6.60;;;18.70;65.90;;;;;;4990987;28;20285;-87
2021/09/23 10:25:13;;;;;;;7.57;6.87;;;18.90;67.10;;;;;;5010968;28;20229;-86
2021/09/23 10:30:37;;;;;;;9.57;6.57;;;19.50;65.00;;;;;;5009226;28;20223;-87
2021/09/23 10:33:04;;;;;;;7.32;6.63;;;19.60;64.40;;;;;;5010862;28;20195;-87
2021/09/23 10:35:31;;;;;;;7.68;6.55;;;19.80;64.30;;;;;;5010807;28;20250;-86
2021/09/23 10:38:03;;;;;;;7.45;6.85;;;19.90;61.70;;;;;;5006602;28;20188;-87
2021/09/23 10:40:30;;;;;;;7.68;6.88;;;19.70;62.30;;;;;;5011234;28;20224;-87
2021/09/23 10:43:01;;;;;;;8.43;7.18;;;19.90;61.60;;;;;;4991550;28;20198;-87
2021/09/23 10:45:28;;;;;;;7.90;7.25;;;20.00;61.10;;;;;;5012149;28;20186;-87
2021/09/23 10:47:58;;;;;;;9.30;7.43;;;20.10;60.70;;;;;;5007473;28;20201;-87
2021/09/23 10:50:32;;;;;;;8.38;7.57;;;20.10;62.20;;;;;;5012923;28;20209;-86
2021/09/23 10:52:59;;;;;;;8.00;7.25;;;20.10;60.80;;;;;;5016516;28;20200;-87
2021/09/23 10:55:27;;;;;;;8.20;7.50;;;20.20;60.50;;;;;;5013982;28;20191;-87
2021/09/23 10:57:55;;;;;;;8.05;7.25;;;20.10;61.00;;;;;;5012254;28;20221;-88
2021/09/23 11:00:27;;;;;;;8.45;7.68;;;20.50;60.90;;;;;;5014758;28;20677;-87
2021/09/23 11:02:54;;;;;;;8.15;7.40;;;20.60;59.70;;;;;;5014814;28;20205;-86
2021/09/23 11:05:22;;;;;;;8.38;6.72;;;20.80;59.30;;;;;;5016450;28;20189;-87
2021/09/23 11:07:50;;;;;;;6.60;6.03;;;20.90;61.10;;;;;;5015800;28;20272;-87
2021/09/23 11:10:23;;;;;;;8.75;6.78;;;21.00;60.30;;;;;;5016629;28;20214;-87
2021/09/23 11:12:59;;;;;;;6.80;6.13;;;21.00;60.90;;;;;;5014683;28;20229;-87
2021/09/23 11:15:27;;;;;;;6.95;6.40;;;21.20;59.00;;;;;;5021019;28;20173;-87
2021/09/23 11:17:55;;;;;;;6.65;6.05;;;21.50;58.70;;;;;;5016312;28;20256;-87
2021/09/23 11:20:24;;;;;;;6.95;6.30;;;21.60;57.90;;;;;;5009949;28;20217;-87
2021/09/23 11:22:54;;;;;;;9.30;6.90;;;21.50;58.20;;;;;;5014171;28;20200;-87
2021/09/23 11:25:22;;;;;;;7.43;6.22;;;21.40;57.00;;;;;;5016910;28;20200;-87
2021/09/23 11:27:49;;;;;;;8.90;5.95;;;21.90;58.70;;;;;;5035936;28;20612;-87
2021/09/23 11:30:22;;;;;;;8.80;6.40;;;22.00;56.70;;;;;;5019990;28;20216;-87
2021/09/23 11:32:51;;;;;;;6.03;5.43;;;22.20;55.70;;;;;;5018969;28;20273;-87
2021/09/23 11:35:20;;;;;;;7.03;5.20;;;22.00;55.90;;;;;;4984623;28;20339;-87
2021/09/23 11:37:47;;;;;;;6.82;5.47;;;22.00;52.60;;;;;;5010577;28;20214;-87
2021/09/23 11:40:21;;;;;;;5.60;5.05;;;22.20;53.50;;;;;;4995623;28;20215;-87
2021/09/23 11:42:48;;;;;;;6.35;5.72;;;22.30;52.60;;;;;;5008734;28;20669;-87
2021/09/23 11:45:18;;;;;;;6.68;5.03;;;22.40;53.20;;;;;;5012326;28;20262;-87
2021/09/23 11:47:50;;;;;;;5.57;4.90;;;22.60;52.50;;;;;;5016277;28;20213;-87
2021/09/23 11:50:33;;;;;;;5.25;4.75;;;22.80;52.00;;;;;;5012542;28;20689;-87
2021/09/23 11:53:19;;;;;;;6.05;4.57;;;22.90;53.30;;;;;;5016710;28;20201;-87
2021/09/23 11:56:03;;;;;;;4.45;4.10;;;22.70;52.00;;;;;;5016935;28;20256;-87
2021/09/23 11:58:30;;;;;;;4.40;4.10;;;23.10;49.60;;;;;;5016359;28;20255;-87
2021/09/23 12:00:57;;;;;;;5.10;4.68;;;23.20;47.90;;;;;;5013500;28;20197;-87
2021/09/23 12:03:24;;;;;;;4.75;4.43;;;23.10;47.10;;;;;;5018815;28;20193;-87
2021/09/23 12:05:52;;;;;;;4.63;4.22;;;23.20;47.40;;;;;;5017720;28;20229;-86
2021/09/23 12:08:22;;;;;;;4.47;4.18;;;22.40;48.50;;;;;;5028926;28;20258;-87
2021/09/23 12:10:56;;;;;;;4.88;4.38;;;22.90;48.50;;;;;;5018406;28;20280;-87
2021/09/23 12:13:36;;;;;;;5.45;4.47;;;23.30;47.80;;;;;;5013983;28;20177;-88
2021/09/23 12:16:08;;;;;;;6.13;5.18;;;23.20;48.10;;;;;;5015312;28;20181;-88
2021/09/23 12:18:36;;;;;;;5.60;5.10;;;23.20;49.50;;;;;;5006404;28;20202;-88
2021/09/23 12:21:10;;;;;;;5.35;4.60;;;23.20;49.40;;;;;;5004824;28;20248;-87
2021/09/23 12:23:56;;;;;;;6.97;5.10;;;23.40;48.80;;;;;;5012759;28;20201;-88
2021/09/23 12:26:31;;;;;;;5.43;4.88;;;23.60;48.30;;;;;;5014209;28;20593;-88
2021/09/23 12:29:02;;;;;;;9.05;5.85;;;23.70;48.40;;;;;;5005731;28;20217;-88
2021/09/23 12:31:30;;;;;;;9.55;5.35;;;23.60;48.10;;;;;;4994111;28;20206;-88
2021/09/23 12:34:18;;;;;;;11.77;5.68;;;23.60;48.50;;;;;;5011771;28;20197;-88
2021/09/23 12:36:46;;;;;;;6.72;5.93;;;23.80;48.00;;;;;;5011084;28;20226;-88
2021/09/23 12:39:21;;;;;;;8.00;5.38;;;23.80;48.10;;;;;;4995318;28;20217;-88
2021/09/23 12:41:50;;;;;;;6.20;5.25;;;23.90;48.20;;;;;;5010721;28;20205;-87
2021/09/23 12:44:17;;;;;;;5.38;4.93;;;23.90;49.20;;;;;;5013693;28;20220;-88
2021/09/23 12:46:42;;;;;;;6.82;5.78;;;23.80;49.00;;;;;;5010314;28;20216;-88
2021/09/23 12:49:17;;;;;;;6.30;5.60;;;24.20;47.80;;;;;;5010333;28;20291;-87
2021/09/23 12:51:47;;;;;;;6.28;5.68;;;24.40;47.60;;;;;;5010913;28;20240;-86